createdAt,value
2023-05-06T00:00:29.823Z,997.73
2023-05-06T00:01:02.285Z,997.73
2023-05-06T00:01:33.424Z,997.73
2023-05-06T00:02:06.392Z,997.93
2023-05-06T00:02:34.555Z,997.83
2023-05-06T00:02:53.803Z,997.83
2023-05-06T00:03:25.535Z,997.83
2023-05-06T00:03:58.055Z,997.63
2023-05-06T00:04:29.826Z,997.63
2023-05-06T00:05:02.386Z,997.63
2023-05-06T00:05:33.407Z,997.63
2023-05-06T00:06:05.776Z,997.63
2023-05-06T00:06:34.549Z,997.53
2023-05-06T00:06:54.790Z,997.53
2023-05-06T00:07:26.340Z,997.53
2023-05-06T00:07:57.491Z,997.32
2023-05-06T00:08:30.540Z,997.32
2023-05-06T00:09:01.512Z,997.43
2023-05-06T00:09:34.906Z,997.43
2023-05-06T00:10:05.719Z,997.83
2023-05-06T00:10:34.556Z,997.83
2023-05-06T00:10:53.734Z,997.83
2023-05-06T00:11:31.921Z,997.83
2023-05-06T00:11:34.442Z,997.73
2023-05-06T00:11:58.340Z,997.73
2023-05-06T00:12:29.690Z,997.73
2023-05-06T00:13:01.612Z,997.63
2023-05-06T00:13:33.490Z,997.63
2023-05-06T00:14:07.521Z,997.53
2023-05-06T00:14:34.438Z,997.63
2023-05-06T00:14:54.519Z,997.63
2023-05-06T00:15:25.467Z,997.63
2023-05-06T00:15:58.354Z,997.63
2023-05-06T00:16:29.778Z,997.63
2023-05-06T00:17:02.330Z,997.73
2023-05-06T00:17:33.390Z,997.73
2023-05-06T00:18:06.387Z,997.83
2023-05-06T00:18:34.507Z,997.32
2023-05-06T00:18:53.589Z,997.32
2023-05-06T00:19:25.434Z,997.32
2023-05-06T00:19:42.713Z,997.53
2023-05-06T00:20:15.469Z,997.53
2023-05-06T00:20:34.464Z,997.53
2023-05-06T00:21:01.570Z,997.53
2023-05-06T00:21:33.993Z,997.53
2023-05-06T00:22:05.762Z,997.63
2023-05-06T00:22:34.488Z,997.53
2023-05-06T00:22:53.408Z,997.53
2023-05-06T00:23:26.260Z,997.53
2023-05-06T00:23:57.412Z,997.63
2023-05-06T00:24:30.378Z,997.63
2023-05-06T00:25:02.472Z,997.63
2023-05-06T00:25:34.723Z,997.63
2023-05-06T00:26:05.849Z,997.53
2023-05-06T00:26:34.489Z,997.53
2023-05-06T00:26:53.381Z,997.53
2023-05-06T00:27:26.833Z,997.53
2023-05-06T00:27:58.652Z,997.63
2023-05-06T00:28:29.810Z,997.63
2023-05-06T00:29:02.300Z,997.43
2023-05-06T00:29:33.381Z,997.43
2023-05-06T00:30:06.864Z,997.43
2023-05-06T00:30:34.508Z,997.32
2023-05-06T00:30:53.380Z,997.32
2023-05-06T00:31:25.453Z,997.32
2023-05-06T00:31:57.418Z,997.22
2023-05-06T00:32:29.429Z,997.22
2023-05-06T00:33:01.604Z,997.43
2023-05-06T00:33:33.963Z,997.43
2023-05-06T00:34:05.867Z,997.43
2023-05-06T00:34:34.668Z,997.43
2023-05-06T00:34:53.662Z,997.43
2023-05-06T00:35:26.290Z,997.43
2023-05-06T00:35:57.425Z,997.43
2023-05-06T00:36:30.403Z,997.43
2023-05-06T00:37:01.575Z,997.53
2023-05-06T00:37:34.673Z,997.53
2023-05-06T00:38:05.514Z,997.53
2023-05-06T00:38:34.459Z,997.43
2023-05-06T00:38:53.391Z,997.43
2023-05-06T00:39:25.444Z,997.43
2023-05-06T00:39:58.364Z,997.43
2023-05-06T00:40:34.675Z,997.43
2023-05-06T00:41:02.326Z,997.43
2023-05-06T00:41:33.341Z,997.43
2023-05-06T00:42:06.395Z,997.32
2023-05-06T00:42:34.544Z,997.43
2023-05-06T00:43:10.297Z,997.43
2023-05-06T00:43:34.444Z,997.43
2023-05-06T00:43:57.385Z,997.43
2023-05-06T00:44:29.376Z,997.43
2023-05-06T00:45:02.374Z,997.22
2023-05-06T00:45:33.429Z,997.22
2023-05-06T00:46:05.583Z,997.32
2023-05-06T00:46:34.483Z,997.32
2023-05-06T00:46:53.362Z,997.32
2023-05-06T00:47:26.271Z,997.32
2023-05-06T00:47:58.876Z,997.43
2023-05-06T00:48:30.419Z,997.43
2023-05-06T00:49:01.471Z,997.32
2023-05-06T00:49:34.419Z,997.32
2023-05-06T00:50:05.401Z,997.53
2023-05-06T00:50:35.501Z,997.32
2023-05-06T00:50:53.438Z,997.32
2023-05-06T00:51:25.430Z,997.32
2023-05-06T00:51:58.377Z,997.53
2023-05-06T00:52:29.350Z,997.53
2023-05-06T00:53:02.254Z,997.53
2023-05-06T00:53:33.632Z,997.53
2023-05-06T00:54:07.959Z,997.43
2023-05-06T00:54:34.469Z,997.53
2023-05-06T00:54:53.473Z,997.53
2023-05-06T00:55:25.428Z,997.53
2023-05-06T00:55:57.441Z,997.32
2023-05-06T00:56:29.381Z,997.32
2023-05-06T00:57:01.531Z,997.53
2023-05-06T00:57:34.053Z,997.53
2023-05-06T00:58:05.394Z,997.53
2023-05-06T00:58:34.463Z,997.32
2023-05-06T00:58:53.343Z,997.32
2023-05-06T00:59:26.364Z,997.32
2023-05-06T00:59:57.348Z,997.32
2023-05-06T01:00:35.477Z,997.53
2023-05-06T01:01:01.503Z,997.53
2023-05-06T01:01:33.473Z,997.53
2023-05-06T01:02:05.399Z,997.53
2023-05-06T01:02:45.805Z,997.53
2023-05-06T01:02:54.657Z,997.53
2023-05-06T01:03:25.604Z,997.53
2023-05-06T01:03:58.396Z,997.32
2023-05-06T01:04:29.365Z,997.32
2023-05-06T01:05:02.692Z,997.43
2023-05-06T01:05:34.071Z,997.43
2023-05-06T01:06:06.490Z,997.32
2023-05-06T01:06:34.479Z,997.22
2023-05-06T01:06:53.395Z,997.22
2023-05-06T01:07:25.350Z,997.22
2023-05-06T01:07:57.476Z,997.53
2023-05-06T01:08:31.053Z,997.53
2023-05-06T01:09:01.452Z,997.22
2023-05-06T01:09:33.933Z,997.22
2023-05-06T01:10:05.393Z,997.32
2023-05-06T01:10:34.606Z,997.32
2023-05-06T01:10:53.382Z,997.32
2023-05-06T01:11:26.142Z,997.32
2023-05-06T01:11:57.377Z,997.22
2023-05-06T01:12:30.546Z,997.22
2023-05-06T01:13:01.497Z,997.32
2023-05-06T01:13:34.261Z,997.32
2023-05-06T01:14:05.421Z,997.32
2023-05-06T01:14:35.431Z,997.32
2023-05-06T01:14:53.343Z,997.32
2023-05-06T01:15:25.538Z,997.32
2023-05-06T01:15:58.271Z,997.53
2023-05-06T01:16:29.404Z,997.53
2023-05-06T01:17:02.296Z,997.53
2023-05-06T01:17:33.337Z,997.53
2023-05-06T01:18:06.568Z,997.22
2023-05-06T01:18:34.473Z,997.43
2023-05-06T01:18:53.344Z,997.43
2023-05-06T01:19:25.363Z,997.43
2023-05-06T01:19:57.331Z,997.43
2023-05-06T01:20:29.376Z,997.43
2023-05-06T01:21:01.456Z,997.32
2023-05-06T01:21:33.517Z,997.32
2023-05-06T01:22:05.358Z,997.32
2023-05-06T01:22:34.996Z,997.22
2023-05-06T01:22:53.335Z,997.22
2023-05-06T01:23:26.213Z,997.22
2023-05-06T01:23:57.354Z,997.32
2023-05-06T01:24:30.488Z,997.32
2023-05-06T01:25:02.272Z,997.53
2023-05-06T01:25:34.231Z,997.53
2023-05-06T01:26:05.394Z,997.32
2023-05-06T01:26:35.454Z,997.53
2023-05-06T01:26:53.330Z,997.53
2023-05-06T01:27:25.311Z,997.53
2023-05-06T01:27:58.678Z,997.43
2023-05-06T01:28:29.328Z,997.43
2023-05-06T01:29:02.289Z,997.53
2023-05-06T01:29:34.105Z,997.53
2023-05-06T01:30:07.372Z,997.32
2023-05-06T01:30:34.487Z,997.32
2023-05-06T01:30:53.354Z,997.32
2023-05-06T01:31:25.382Z,997.32
2023-05-06T01:31:57.305Z,997.32
2023-05-06T01:32:29.375Z,997.32
2023-05-06T01:33:07.540Z,997.32
2023-05-06T01:33:18.483Z,997.53
2023-05-06T01:33:49.342Z,997.43
2023-05-06T01:34:22.707Z,997.43
2023-05-06T01:34:39.866Z,997.43
2023-05-06T01:35:10.773Z,997.43
2023-05-06T01:35:34.789Z,997.32
2023-05-06T01:35:57.332Z,997.32
2023-05-06T01:36:30.625Z,997.32
2023-05-06T01:37:01.451Z,997.32
2023-05-06T01:37:34.376Z,997.32
2023-05-06T01:38:05.368Z,997.43
2023-05-06T01:38:36.432Z,997.43
2023-05-06T01:38:53.366Z,997.43
2023-05-06T01:39:25.284Z,997.43
2023-05-06T01:39:58.559Z,997.43
2023-05-06T01:40:29.363Z,997.43
2023-05-06T01:41:02.187Z,997.43
2023-05-06T01:41:33.332Z,997.43
2023-05-06T01:42:06.615Z,997.53
2023-05-06T01:42:34.425Z,997.32
2023-05-06T01:42:53.449Z,997.32
2023-05-06T01:43:25.307Z,997.32
2023-05-06T01:43:57.353Z,997.22
2023-05-06T01:44:29.320Z,997.22
2023-05-06T01:45:02.450Z,997.43
2023-05-06T01:45:33.365Z,997.43
2023-05-06T01:46:05.432Z,997.32
2023-05-06T01:46:34.498Z,997.43
2023-05-06T01:46:53.393Z,997.43
2023-05-06T01:47:26.428Z,997.43
2023-05-06T01:47:57.373Z,997.32
2023-05-06T01:48:30.718Z,997.32
2023-05-06T01:49:01.360Z,997.43
2023-05-06T01:49:34.429Z,997.43
2023-05-06T01:50:05.383Z,997.43
2023-05-06T01:50:38.644Z,997.43
2023-05-06T01:51:09.372Z,997.43
2023-05-06T01:51:34.966Z,997.63
2023-05-06T01:51:57.885Z,997.63
2023-05-06T01:52:29.384Z,997.63
2023-05-06T01:53:02.245Z,997.63
2023-05-06T01:53:33.371Z,997.63
2023-05-06T01:54:06.652Z,997.53
2023-05-06T01:54:34.435Z,997.43
2023-05-06T01:54:53.414Z,997.43
2023-05-06T01:55:25.382Z,997.43
2023-05-06T01:55:57.380Z,997.32
2023-05-06T01:56:29.390Z,997.32
2023-05-06T01:57:01.503Z,997.53
2023-05-06T01:57:33.354Z,997.53
2023-05-06T01:58:05.459Z,997.73
2023-05-06T01:58:34.457Z,997.63
2023-05-06T01:58:53.409Z,997.63
2023-05-06T01:59:26.339Z,997.63
2023-05-06T01:59:57.734Z,997.53
2023-05-06T02:00:30.652Z,997.53
2023-05-06T02:01:01.467Z,997.73
2023-05-06T02:01:34.116Z,997.73
2023-05-06T02:02:05.415Z,997.63
2023-05-06T02:02:35.570Z,997.53
2023-05-06T02:02:53.634Z,997.53
2023-05-06T02:03:25.472Z,997.53
2023-05-06T02:03:58.824Z,997.43
2023-05-06T02:04:29.381Z,997.43
2023-05-06T02:05:02.603Z,997.43
2023-05-06T02:05:33.317Z,997.43
2023-05-06T02:06:06.499Z,997.63
2023-05-06T02:06:34.445Z,997.63
2023-05-06T02:06:53.346Z,997.63
2023-05-06T02:07:25.274Z,997.63
2023-05-06T02:07:57.279Z,997.43
2023-05-06T02:08:29.349Z,997.43
2023-05-06T02:09:01.424Z,997.63
2023-05-06T02:09:33.322Z,997.63
2023-05-06T02:10:07.320Z,997.73
2023-05-06T02:10:34.493Z,997.53
2023-05-06T02:10:53.356Z,997.53
2023-05-06T02:11:26.178Z,997.53
2023-05-06T02:11:57.338Z,997.63
2023-05-06T02:12:30.525Z,997.63
2023-05-06T02:13:01.420Z,997.73
2023-05-06T02:13:33.384Z,997.73
2023-05-06T02:14:05.421Z,997.63
2023-05-06T02:14:34.417Z,997.63
2023-05-06T02:14:54.680Z,997.63
2023-05-06T02:15:25.313Z,997.63
2023-05-06T02:15:58.249Z,997.63
2023-05-06T02:16:29.398Z,997.63
2023-05-06T02:17:02.442Z,997.53
2023-05-06T02:17:33.401Z,997.53
2023-05-06T02:18:06.578Z,997.63
2023-05-06T02:18:34.421Z,997.63
2023-05-06T02:18:53.334Z,997.63
2023-05-06T02:19:25.463Z,997.63
2023-05-06T02:19:57.308Z,997.73
2023-05-06T02:20:29.360Z,997.73
2023-05-06T02:21:01.307Z,997.53
2023-05-06T02:21:33.316Z,997.53
2023-05-06T02:22:05.322Z,997.73
2023-05-06T02:22:34.614Z,997.73
2023-05-06T02:22:53.356Z,997.73
2023-05-06T02:23:26.202Z,997.73
2023-05-06T02:23:57.595Z,997.53
2023-05-06T02:24:30.554Z,997.53
2023-05-06T02:25:02.318Z,997.53
2023-05-06T02:25:34.344Z,997.53
2023-05-06T02:26:05.311Z,997.73
2023-05-06T02:26:36.443Z,997.53
2023-05-06T02:27:09.727Z,997.53
2023-05-06T02:27:34.828Z,997.63
2023-05-06T02:27:57.340Z,997.63
2023-05-06T02:28:29.302Z,997.63
2023-05-06T02:29:02.213Z,997.53
2023-05-06T02:29:33.288Z,997.53
2023-05-06T02:30:06.967Z,997.63
2023-05-06T02:30:34.569Z,997.73
2023-05-06T02:30:53.419Z,997.73
2023-05-06T02:31:25.249Z,997.73
2023-05-06T02:31:57.504Z,997.63
2023-05-06T02:32:29.316Z,997.63
2023-05-06T02:33:01.412Z,997.53
2023-05-06T02:33:33.276Z,997.53
2023-05-06T02:34:05.312Z,997.43
2023-05-06T02:34:34.538Z,997.73
2023-05-06T02:34:53.277Z,997.73
2023-05-06T02:35:26.244Z,997.73
2023-05-06T02:35:57.328Z,997.43
2023-05-06T02:36:30.526Z,997.43
2023-05-06T02:37:01.379Z,997.63
2023-05-06T02:37:36.216Z,997.63
2023-05-06T02:38:05.263Z,997.83
2023-05-06T02:38:34.451Z,997.32
2023-05-06T02:38:53.365Z,997.32
2023-05-06T02:39:25.319Z,997.32
2023-05-06T02:39:58.267Z,997.63
2023-05-06T02:40:29.304Z,997.63
2023-05-06T02:41:02.150Z,997.43
2023-05-06T02:41:33.290Z,997.43
2023-05-06T02:42:06.525Z,997.43
2023-05-06T02:42:34.512Z,997.63
2023-05-06T02:42:53.421Z,997.63
2023-05-06T02:43:25.246Z,997.63
2023-05-06T02:43:58.329Z,997.43
2023-05-06T02:44:29.257Z,997.43
2023-05-06T02:45:02.244Z,997.32
2023-05-06T02:45:34.001Z,997.32
2023-05-06T02:46:05.367Z,997.53
2023-05-06T02:46:34.454Z,997.43
2023-05-06T02:46:53.371Z,997.43
2023-05-06T02:47:26.162Z,997.43
2023-05-06T02:47:57.332Z,997.53
2023-05-06T02:48:30.541Z,997.53
2023-05-06T02:49:01.339Z,997.32
2023-05-06T02:49:34.251Z,997.32
2023-05-06T02:50:07.098Z,997.53
2023-05-06T02:50:35.420Z,997.32
2023-05-06T02:50:53.358Z,997.32
2023-05-06T02:51:25.261Z,997.32
2023-05-06T02:51:58.133Z,997.43
2023-05-06T02:52:29.295Z,997.43
2023-05-06T02:53:02.144Z,997.43
2023-05-06T02:53:33.317Z,997.43
2023-05-06T02:54:06.642Z,997.43
2023-05-06T02:54:34.528Z,997.32
2023-05-06T02:54:53.304Z,997.32
2023-05-06T02:55:25.288Z,997.32
2023-05-06T02:55:57.300Z,997.32
2023-05-06T02:56:29.279Z,997.32
2023-05-06T02:57:01.323Z,997.43
2023-05-06T02:57:33.660Z,997.43
2023-05-06T02:58:05.243Z,997.63
2023-05-06T02:58:34.406Z,997.22
2023-05-06T02:58:53.336Z,997.22
2023-05-06T02:59:26.306Z,997.22
2023-05-06T02:59:57.389Z,997.22
2023-05-06T03:00:30.580Z,997.22
2023-05-06T03:01:01.432Z,997.22
2023-05-06T03:01:34.100Z,997.22
2023-05-06T03:02:05.250Z,997.22
2023-05-06T03:02:36.419Z,997.32
2023-05-06T03:03:09.347Z,997.32
2023-05-06T03:03:34.440Z,997.22
2023-05-06T03:03:57.373Z,997.22
2023-05-06T03:04:29.259Z,997.22
2023-05-06T03:05:02.403Z,997.43
2023-05-06T03:05:34.076Z,997.43
2023-05-06T03:06:06.555Z,997.32
2023-05-06T03:06:34.481Z,997.32
2023-05-06T03:06:53.307Z,997.32
2023-05-06T03:07:25.260Z,997.32
2023-05-06T03:07:57.329Z,997.32
2023-05-06T03:08:29.269Z,997.32
2023-05-06T03:09:01.287Z,997.53
2023-05-06T03:09:33.424Z,997.53
2023-05-06T03:10:05.377Z,997.32
2023-05-06T03:10:34.924Z,997.32
2023-05-06T03:10:53.250Z,997.32
2023-05-06T03:11:26.189Z,997.32
2023-05-06T03:11:57.521Z,997.32
2023-05-06T03:12:30.582Z,997.32
2023-05-06T03:13:01.285Z,997.22
2023-05-06T03:13:34.170Z,997.22
2023-05-06T03:14:05.262Z,997.53
2023-05-06T03:14:35.562Z,997.43
2023-05-06T03:14:53.300Z,997.43
2023-05-06T03:15:25.283Z,997.43
2023-05-06T03:15:43.334Z,997.43
2023-05-06T03:16:13.264Z,997.43
2023-05-06T03:16:34.469Z,997.43
2023-05-06T03:17:01.327Z,997.43
2023-05-06T03:17:33.293Z,997.43
2023-05-06T03:18:06.643Z,997.43
2023-05-06T03:18:35.252Z,997.32
2023-05-06T03:18:53.304Z,997.32
2023-05-06T03:19:25.215Z,997.32
2023-05-06T03:19:42.869Z,997.43
2023-05-06T03:20:14.334Z,997.43
2023-05-06T03:20:34.544Z,997.43
2023-05-06T03:21:01.338Z,997.43
2023-05-06T03:21:33.362Z,997.43
2023-05-06T03:22:05.249Z,997.32
2023-05-06T03:22:34.480Z,997.53
2023-05-06T03:22:53.449Z,997.53
2023-05-06T03:23:26.150Z,997.53
2023-05-06T03:23:57.475Z,997.32
2023-05-06T03:24:30.554Z,997.32
2023-05-06T03:25:02.585Z,997.53
2023-05-06T03:25:34.513Z,997.53
2023-05-06T03:26:05.372Z,997.32
2023-05-06T03:26:35.342Z,997.43
2023-05-06T03:26:53.249Z,997.43
2023-05-06T03:27:25.269Z,997.43
2023-05-06T03:27:58.346Z,997.63
2023-05-06T03:28:29.254Z,997.63
2023-05-06T03:29:02.130Z,997.32
2023-05-06T03:29:33.630Z,997.32
2023-05-06T03:30:07.095Z,997.43
2023-05-06T03:30:34.449Z,997.53
2023-05-06T03:30:53.325Z,997.53
2023-05-06T03:31:25.302Z,997.53
2023-05-06T03:31:42.908Z,997.63
2023-05-06T03:32:14.133Z,997.63
2023-05-06T03:32:34.470Z,997.43
2023-05-06T03:33:01.374Z,997.43
2023-05-06T03:33:33.478Z,997.43
2023-05-06T03:34:06.274Z,997.43
2023-05-06T03:34:34.401Z,997.32
2023-05-06T03:34:53.294Z,997.32
2023-05-06T03:35:26.133Z,997.32
2023-05-06T03:35:57.824Z,997.53
2023-05-06T03:36:30.511Z,997.53
2023-05-06T03:37:01.330Z,997.32
2023-05-06T03:37:34.094Z,997.32
2023-05-06T03:38:05.241Z,997.32
2023-05-06T03:38:35.333Z,997.43
2023-05-06T03:38:53.239Z,997.43
2023-05-06T03:39:25.213Z,997.43
2023-05-06T03:39:58.124Z,997.43
2023-05-06T03:40:29.263Z,997.43
2023-05-06T03:41:02.127Z,997.63
2023-05-06T03:41:33.584Z,997.63
2023-05-06T03:42:08.614Z,997.43
2023-05-06T03:42:34.437Z,997.63
2023-05-06T03:42:53.236Z,997.63
2023-05-06T03:43:25.259Z,997.63
2023-05-06T03:43:43.153Z,997.32
2023-05-06T03:44:14.262Z,997.32
2023-05-06T03:44:34.434Z,997.53
2023-05-06T03:45:02.063Z,997.53
2023-05-06T03:45:33.292Z,997.53
2023-05-06T03:46:05.253Z,997.53
2023-05-06T03:46:34.451Z,997.53
2023-05-06T03:46:53.250Z,997.53
2023-05-06T03:47:27.533Z,997.53
2023-05-06T03:47:58.628Z,997.43
2023-05-06T03:48:30.639Z,997.43
2023-05-06T03:49:01.285Z,997.53
2023-05-06T03:49:34.169Z,997.53
2023-05-06T03:50:05.223Z,997.43
2023-05-06T03:50:35.224Z,997.32
2023-05-06T03:50:53.270Z,997.32
2023-05-06T03:51:25.191Z,997.32
2023-05-06T03:51:43.435Z,997.32
2023-05-06T03:52:13.209Z,997.32
2023-05-06T03:52:34.438Z,997.43
2023-05-06T03:53:01.303Z,997.43
2023-05-06T03:53:35.223Z,997.43
2023-05-06T03:54:06.652Z,997.32
2023-05-06T03:54:36.003Z,997.43
2023-05-06T03:54:53.249Z,997.43
2023-05-06T03:55:25.261Z,997.43
2023-05-06T03:55:42.928Z,997.53
2023-05-06T03:56:14.109Z,997.53
2023-05-06T03:56:34.430Z,997.32
2023-05-06T03:57:01.328Z,997.32
2023-05-06T03:57:34.004Z,997.32
2023-05-06T03:58:05.225Z,997.53
2023-05-06T03:58:34.878Z,997.63
2023-05-06T03:58:53.231Z,997.63
2023-05-06T03:59:26.198Z,997.63
2023-05-06T03:59:57.320Z,997.43
2023-05-06T04:00:30.560Z,997.43
2023-05-06T04:01:01.313Z,997.43
2023-05-06T04:01:34.216Z,997.43
2023-05-06T04:02:05.281Z,997.63
2023-05-06T04:02:39.041Z,997.53
2023-05-06T04:03:09.484Z,997.53
2023-05-06T04:03:34.497Z,997.63
2023-05-06T04:03:57.421Z,997.63
2023-05-06T04:04:29.247Z,997.63
2023-05-06T04:05:02.778Z,997.53
2023-05-06T04:05:33.816Z,997.53
2023-05-06T04:06:06.890Z,997.53
2023-05-06T04:06:34.473Z,997.63
2023-05-06T04:06:55.095Z,997.63
2023-05-06T04:07:25.257Z,997.63
2023-05-06T04:07:43.172Z,997.63
2023-05-06T04:08:14.331Z,997.63
2023-05-06T04:08:34.517Z,997.73
2023-05-06T04:09:01.345Z,997.73
2023-05-06T04:09:33.995Z,997.73
2023-05-06T04:10:05.352Z,997.53
2023-05-06T04:10:34.515Z,997.43
2023-05-06T04:10:53.279Z,997.43
2023-05-06T04:11:27.071Z,997.43
2023-05-06T04:11:57.403Z,997.63
2023-05-06T04:12:30.528Z,997.63
2023-05-06T04:13:01.603Z,997.53
2023-05-06T04:13:34.244Z,997.53
2023-05-06T04:14:05.249Z,997.63
2023-05-06T04:14:35.897Z,997.53
2023-05-06T04:14:53.286Z,997.53
2023-05-06T04:15:25.305Z,997.53
2023-05-06T04:15:44.496Z,997.53
2023-05-06T04:16:13.291Z,997.53
2023-05-06T04:16:34.470Z,997.53
2023-05-06T04:17:01.485Z,997.53
2023-05-06T04:17:33.305Z,997.53
2023-05-06T04:18:06.639Z,997.63
2023-05-06T04:18:35.006Z,997.73
2023-05-06T04:19:10.790Z,997.73
2023-05-06T04:19:34.470Z,997.53
2023-05-06T04:19:57.236Z,997.53
2023-05-06T04:20:29.260Z,997.53
2023-05-06T04:21:07.421Z,997.53
2023-05-06T04:21:18.605Z,997.53
2023-05-06T04:21:49.525Z,997.63
2023-05-06T04:22:22.263Z,997.63
2023-05-06T04:22:39.323Z,997.73
2023-05-06T04:23:09.258Z,997.73
2023-05-06T04:23:35.436Z,997.53
2023-05-06T04:23:57.277Z,997.53
2023-05-06T04:24:29.263Z,997.53
2023-05-06T04:25:02.317Z,997.53
2023-05-06T04:25:33.187Z,997.53
2023-05-06T04:26:05.278Z,997.63
2023-05-06T04:26:34.462Z,997.73
2023-05-06T04:26:54.388Z,997.73
2023-05-06T04:27:25.323Z,997.73
2023-05-06T04:27:42.960Z,997.63
2023-05-06T04:28:14.320Z,997.63
2023-05-06T04:28:34.623Z,997.73
2023-05-06T04:29:01.364Z,997.73
2023-05-06T04:29:33.237Z,997.73
2023-05-06T04:30:06.615Z,997.63
2023-05-06T04:30:34.538Z,997.53
2023-05-06T04:30:53.273Z,997.53
2023-05-06T04:31:26.194Z,997.53
2023-05-06T04:31:57.239Z,997.63
2023-05-06T04:32:36.578Z,997.73
2023-05-06T04:33:01.393Z,997.73
2023-05-06T04:33:33.918Z,997.73
2023-05-06T04:34:05.199Z,997.73
2023-05-06T04:34:35.494Z,997.63
2023-05-06T04:34:54.623Z,997.63
2023-05-06T04:35:25.233Z,997.63
2023-05-06T04:35:42.959Z,997.73
2023-05-06T04:36:13.234Z,997.73
2023-05-06T04:36:34.593Z,997.73
2023-05-06T04:37:12.742Z,997.73
2023-05-06T04:37:18.090Z,997.73
2023-05-06T04:37:49.326Z,997.83
2023-05-06T04:38:22.472Z,997.83
2023-05-06T04:38:39.738Z,997.63
2023-05-06T04:39:09.253Z,997.63
2023-05-06T04:39:34.505Z,997.83
2023-05-06T04:39:57.284Z,997.83
2023-05-06T04:40:30.426Z,997.83
2023-05-06T04:41:01.297Z,997.73
2023-05-06T04:41:35.053Z,997.73
2023-05-06T04:42:05.200Z,997.73
2023-05-06T04:42:34.495Z,997.73
2023-05-06T04:42:53.252Z,997.73
2023-05-06T04:43:25.227Z,997.73
2023-05-06T04:43:42.861Z,997.93
2023-05-06T04:44:13.272Z,997.93
2023-05-06T04:44:34.487Z,997.83
2023-05-06T04:45:02.677Z,997.83
2023-05-06T04:45:33.296Z,997.83
2023-05-06T04:46:06.477Z,997.63
2023-05-06T04:46:34.571Z,997.73
2023-05-06T04:46:53.822Z,997.73
2023-05-06T04:47:25.329Z,997.73
2023-05-06T04:47:43.015Z,997.83
2023-05-06T04:48:14.089Z,997.83
2023-05-06T04:48:35.126Z,997.83
2023-05-06T04:49:01.276Z,997.83
2023-05-06T04:49:33.273Z,997.83
2023-05-06T04:50:05.205Z,997.83
2023-05-06T04:50:34.574Z,997.83
2023-05-06T04:50:53.300Z,997.83
2023-05-06T04:51:26.074Z,997.83
2023-05-06T04:51:57.271Z,997.63
2023-05-06T04:52:30.310Z,997.63
2023-05-06T04:53:02.852Z,997.63
2023-05-06T04:53:34.139Z,997.63
2023-05-06T04:54:05.308Z,997.83
2023-05-06T04:54:35.353Z,997.93
2023-05-06T04:54:53.316Z,997.93
2023-05-06T04:55:25.287Z,997.93
2023-05-06T04:55:43.508Z,997.93
2023-05-06T04:56:13.260Z,997.93
2023-05-06T04:56:34.557Z,997.83
2023-05-06T04:57:01.331Z,997.83
2023-05-06T04:57:33.230Z,997.83
2023-05-06T04:58:06.531Z,997.83
2023-05-06T04:58:34.580Z,997.93
2023-05-06T04:58:53.268Z,997.93
2023-05-06T04:59:25.271Z,997.93
2023-05-06T04:59:42.804Z,998.03
2023-05-06T05:00:15.275Z,998.03
2023-05-06T05:00:34.503Z,997.93
2023-05-06T05:01:01.498Z,997.93
2023-05-06T05:01:33.230Z,997.93
2023-05-06T05:02:05.226Z,997.93
2023-05-06T05:02:34.612Z,998.03
2023-05-06T05:02:53.265Z,998.03
2023-05-06T05:03:26.201Z,998.03
2023-05-06T05:03:43.096Z,998.03
2023-05-06T05:04:13.256Z,998.03
2023-05-06T05:04:34.587Z,997.93
2023-05-06T05:05:02.265Z,997.93
2023-05-06T05:05:34.030Z,997.93
2023-05-06T05:06:05.196Z,998.03
2023-05-06T05:06:35.374Z,997.73
2023-05-06T05:06:53.308Z,997.73
2023-05-06T05:07:25.498Z,997.73
2023-05-06T05:07:43.348Z,997.93
2023-05-06T05:08:13.213Z,997.93
2023-05-06T05:08:34.591Z,997.93
2023-05-06T05:09:01.279Z,997.93
2023-05-06T05:09:33.211Z,997.93
2023-05-06T05:10:06.583Z,997.83
2023-05-06T05:10:34.555Z,998.03
2023-05-06T05:10:53.271Z,998.03
2023-05-06T05:11:25.229Z,998.03
2023-05-06T05:11:42.845Z,998.14
2023-05-06T05:12:14.146Z,998.14
2023-05-06T05:12:34.655Z,997.93
2023-05-06T05:13:01.304Z,997.93
2023-05-06T05:13:33.173Z,997.93
2023-05-06T05:14:06.528Z,997.83
2023-05-06T05:14:34.581Z,998.03
2023-05-06T05:14:53.249Z,998.03
2023-05-06T05:15:25.260Z,998.03
2023-05-06T05:15:42.802Z,997.73
2023-05-06T05:16:14.052Z,997.73
2023-05-06T05:16:34.560Z,998.03
2023-05-06T05:17:01.286Z,998.03
2023-05-06T05:17:33.309Z,998.03
2023-05-06T05:18:05.339Z,997.93
2023-05-06T05:18:34.503Z,997.93
2023-05-06T05:18:53.227Z,997.93
2023-05-06T05:19:26.206Z,997.93
2023-05-06T05:19:57.138Z,998.14
2023-05-06T05:20:30.122Z,998.14
2023-05-06T05:21:01.337Z,997.93
2023-05-06T05:21:34.071Z,997.93
2023-05-06T05:22:05.209Z,997.83
2023-05-06T05:22:35.393Z,997.83
2023-05-06T05:22:53.212Z,997.83
2023-05-06T05:23:25.149Z,997.83
2023-05-06T05:23:43.220Z,998.03
2023-05-06T05:24:13.160Z,998.03
2023-05-06T05:24:34.793Z,998.14
2023-05-06T05:25:02.345Z,998.14
2023-05-06T05:25:33.208Z,998.14
2023-05-06T05:26:06.115Z,998.14
2023-05-06T05:26:34.524Z,998.14
2023-05-06T05:26:53.231Z,998.14
2023-05-06T05:27:25.213Z,998.14
2023-05-06T05:27:42.782Z,998.03
2023-05-06T05:28:14.108Z,998.03
2023-05-06T05:28:34.529Z,998.14
2023-05-06T05:29:01.271Z,998.14
2023-05-06T05:29:33.197Z,998.14
2023-05-06T05:30:05.736Z,998.03
2023-05-06T05:30:34.520Z,998.03
2023-05-06T05:30:53.296Z,998.03
2023-05-06T05:31:26.238Z,998.03
2023-05-06T05:31:57.192Z,998.24
2023-05-06T05:32:30.129Z,998.24
2023-05-06T05:33:01.363Z,997.93
2023-05-06T05:33:34.115Z,997.93
2023-05-06T05:34:05.256Z,998.14
2023-05-06T05:34:36.947Z,998.14
2023-05-06T05:35:11.306Z,998.14
2023-05-06T05:35:34.536Z,998.14
2023-05-06T05:35:57.238Z,998.14
2023-05-06T05:36:29.285Z,998.14
2023-05-06T05:37:02.128Z,998.14
2023-05-06T05:37:33.306Z,998.14
2023-05-06T05:38:06.165Z,998.03
2023-05-06T05:38:34.493Z,998.44
2023-05-06T05:38:53.221Z,998.44
2023-05-06T05:39:25.149Z,998.44
2023-05-06T05:39:42.629Z,998.24
2023-05-06T05:40:14.109Z,998.24
2023-05-06T05:40:34.484Z,998.24
2023-05-06T05:41:01.393Z,998.24
2023-05-06T05:41:33.188Z,998.24
2023-05-06T05:42:05.260Z,998.14
2023-05-06T05:42:34.530Z,998.14
2023-05-06T05:42:53.324Z,998.14
2023-05-06T05:43:26.180Z,998.14
2023-05-06T05:43:57.209Z,998.24
2023-05-06T05:44:30.204Z,998.24
2023-05-06T05:45:02.546Z,998.14
2023-05-06T05:45:34.133Z,998.14
2023-05-06T05:46:05.173Z,998.24
2023-05-06T05:46:35.491Z,998.24
2023-05-06T05:46:53.268Z,998.24
2023-05-06T05:47:25.263Z,998.24
2023-05-06T05:47:43.675Z,998.24
2023-05-06T05:48:13.228Z,998.24
2023-05-06T05:48:34.808Z,998.03
2023-05-06T05:49:01.252Z,998.03
2023-05-06T05:49:34.550Z,998.03
2023-05-06T05:50:07.511Z,998.14
2023-05-06T05:50:36.193Z,998.24
2023-05-06T05:50:53.198Z,998.24
2023-05-06T05:51:25.150Z,998.24
2023-05-06T05:51:42.639Z,998.03
2023-05-06T05:52:14.068Z,998.03
2023-05-06T05:52:34.831Z,998.24
2023-05-06T05:53:01.300Z,998.24
2023-05-06T05:53:33.134Z,998.24
2023-05-06T05:54:05.239Z,998.44
2023-05-06T05:54:34.502Z,998.24
2023-05-06T05:54:53.358Z,998.24
2023-05-06T05:55:26.137Z,998.24
2023-05-06T05:55:57.175Z,998.24
2023-05-06T05:56:30.136Z,998.24
2023-05-06T05:57:01.277Z,998.34
2023-05-06T05:57:34.149Z,998.34
2023-05-06T05:58:05.297Z,998.14
2023-05-06T05:58:36.332Z,998.14
2023-05-06T05:58:53.277Z,998.14
2023-05-06T05:59:25.146Z,998.14
2023-05-06T05:59:44.242Z,998.14
2023-05-06T06:00:13.679Z,998.14